Time,TemperatureF,DewpointF,PressureIn,WindDirection,WindDirectionDegrees,WindSpeedMPH,WindSpeedGustMPH,Humidity,HourlyPrecipIn,Conditions,Clouds,dailyrainin,SoftwareType,DateUTC
2013-05-22 00:01:00,75.3,69.4,29.93,SE,124,0.0,0.0,82,0.00,RA,OVC,0.00,WeatherDisplay:10.37,2013-05-22 04:01:00,
2013-05-22 00:06:00,75.3,69.4,29.93,SE,124,0.0,0.0,82,0.00,RA,OVC,0.00,WeatherDisplay:10.37,2013-05-22 04:06:00,
2013-05-22 00:11:00,75.1,69.6,29.93,SE,125,0.0,0.0,83,0.00,,OVC,0.00,WeatherDisplay:10.37,2013-05-22 04:11:00,
2013-05-22 00:16:00,75.1,69.6,29.92,SE,125,0.0,0.0,83,0.00,,OVC,0.00,WeatherDisplay:10.37,2013-05-22 04:16:00,
2013-05-22 00:21:00,74.9,69.4,29.92,SE,125,0.0,0.0,83,0.00,,OVC,0.00,WeatherDisplay:10.37,2013-05-22 04:21:00,
2013-05-22 00:26:00,74.7,69.5,29.92,SE,126,0.0,0.0,84,0.00,,OVC,0.00,WeatherDisplay:10.37,2013-05-22 04:26:00,
2013-05-22 00:31:00,74.7,69.5,29.92,SE,126,0.0,0.0,84,0.00,,OVC,0.00,WeatherDisplay:10.37,2013-05-22 04:31:00,
2013-05-22 00:36:00,74.6,69.8,29.92,SE,126,0.0,0.0,85,0.00,,OVC,0.00,WeatherDisplay:10.37,2013-05-22 04:36:00,
2013-05-22 00:41:00,74.6,69.8,29.92,SE,125,0.0,0.0,85,0.00,,OVC,0.00,WeatherDisplay:10.37,2013-05-22 04:41:00,
2013-05-22 00:46:00,74.6,69.8,29.91,SE,127,0.0,0.0,85,0.00,,OVC,0.00,WeatherDisplay:10.37,2013-05-22 04:46:00,
2013-05-22 00:51:00,74.6,69.8,29.91,ESE,114,0.0,0.0,85,0.00,,OVC,0.00,WeatherDisplay:10.37,2013-05-22 04:51:00,
2013-05-22 00:56:00,74.6,70.1,29.91,ESE,115,0.0,0.0,86,0.00,,OVC,0.00,WeatherDisplay:10.37,2013-05-22 04:56:00,
2013-05-22 01:01:00,74.6,70.1,29.91,ESE,115,0.0,0.0,86,0.00,,OVC,0.00,WeatherDisplay:10.37,2013-05-22 05:01:00,
2013-05-22 01:06:00,74.6,70.1,29.91,ESE,115,0.0,0.0,86,0.00,,OVC,0.00,WeatherDisplay:10.37,2013-05-22 05:06:00,
2013-05-22 01:11:00,74.6,70.1,29.91,ESE,116,0.0,0.0,86,0.00,,OVC,0.00,WeatherDisplay:10.37,2013-05-22 05:11:00,
2013-05-22 01:16:00,74.6,69.8,29.90,ESE,116,0.0,0.0,85,0.00,,OVC,0.00,WeatherDisplay:10.37,2013-05-22 05:16:00,
2013-05-22 01:21:00,74.6,69.8,29.90,ESE,116,0.0,0.0,85,0.00,,OVC,0.00,WeatherDisplay:10.37,2013-05-22 05:21:00,
2013-05-22 01:26:00,74.6,69.8,29.90,ESE,116,0.0,0.0,85,0.00,,OVC,0.00,WeatherDisplay:10.37,2013-05-22 05:26:00,
2013-05-22 01:31:00,74.7,70.2,29.90,ESE,115,0.0,0.0,86,0.00,,OVC,0.00,WeatherDisplay:10.37,2013-05-22 05:31:00,
2013-05-22 01:36:00,74.7,70.2,29.90,ESE,115,0.0,0.0,86,0.00,,OVC,0.00,WeatherDisplay:10.37,2013-05-22 05:36:00,
2013-05-22 01:41:00,74.7,70.2,29.90,ESE,116,0.0,0.0,86,0.00,,OVC,0.00,WeatherDisplay:10.37,2013-05-22 05:41:00,
2013-05-22 01:46:00,74.9,70.4,29.89,ESE,117,0.0,0.0,86,0.00,,OVC,0.00,WeatherDisplay:10.37,2013-05-22 05:46:00,
2013-05-22 01:51:00,74.9,70.8,29.89,ESE,117,0.0,0.0,87,0.00,,OVC,0.00,WeatherDisplay:10.37,2013-05-22 05:51:00,
2013-05-22 01:56:00,75.1,71.0,29.89,ESE,117,0.0,0.0,87,0.00,,OVC,0.00,WeatherDisplay:10.37,2013-05-22 05:56:00,
2013-05-22 02:01:00,75.3,71.2,29.89,SE,139,8.1,8.1,87,0.00,,OVC,0.00,WeatherDisplay:10.37,2013-05-22 06:01:00,
2013-05-22 02:06:00,75.4,71.3,29.89,SE,132,0.0,2.9,87,0.00,,OVC,0.00,WeatherDisplay:10.37,2013-05-22 06:06:00,
2013-05-22 02:11:00,75.4,71.3,29.89,SE,134,0.0,0.0,87,0.00,,OVC,0.00,WeatherDisplay:10.37,2013-05-22 06:11:00,
2013-05-22 02:16:00,75.3,71.2,29.88,ESE,122,0.0,0.0,87,0.00,,OVC,0.00,WeatherDisplay:10.37,2013-05-22 06:16:00,
2013-05-22 02:21:00,75.3,71.5,29.88,ESE,122,0.0,0.0,88,0.00,,OVC,0.00,WeatherDisplay:10.37,2013-05-22 06:21:00,
2013-05-22 02:26:00,75.1,71.3,29.88,ESE,122,0.0,0.0,88,0.00,,OVC,0.00,WeatherDisplay:10.37,2013-05-22 06:26:00,
2013-05-22 02:32:00,75.1,71.3,29.88,ESE,122,0.0,0.0,88,0.00,,OVC,0.00,WeatherDisplay:10.37,2013-05-22 06:32:00,
2013-05-22 02:37:00,74.9,71.4,29.88,ESE,122,0.0,0.0,89,0.00,,OVC,0.00,WeatherDisplay:10.37,2013-05-22 06:37:00,
2013-05-22 02:42:00,74.9,71.4,29.88,ESE,122,0.0,0.0,89,0.00,,OVC,0.00,WeatherDisplay:10.37,2013-05-22 06:42:00,
2013-05-22 02:47:00,74.7,71.2,29.88,ESE,122,0.0,0.0,89,0.00,,OVC,0.00,WeatherDisplay:10.37,2013-05-22 06:47:00,
2013-05-22 02:52:00,74.6,71.1,29.88,ESE,122,0.0,0.0,89,0.00,,OVC,0.00,WeatherDisplay:10.37,2013-05-22 06:52:00,
2013-05-22 02:57:00,74.4,70.9,29.88,ESE,122,0.0,0.0,89,0.00,,OVC,0.00,WeatherDisplay:10.37,2013-05-22 06:57:00,
2013-05-22 03:02:00,74.4,70.9,29.88,ESE,122,0.0,0.0,89,0.00,,OVC,0.00,WeatherDisplay:10.37,2013-05-22 07:02:00,
2013-05-22 03:07:00,74.4,71.3,29.88,ESE,122,0.0,0.0,90,0.00,,OVC,0.00,WeatherDisplay:10.37,2013-05-22 07:07:00,
2013-05-22 03:12:00,74.2,71.1,29.88,ESE,122,0.0,0.0,90,0.00,,OVC,0.00,WeatherDisplay:10.37,2013-05-22 07:12:00,
2013-05-22 03:17:00,74.0,70.9,29.88,ESE,122,0.0,0.0,90,0.00,,OVC,0.00,WeatherDisplay:10.37,2013-05-22 07:17:00,
2013-05-22 03:22:00,73.9,70.8,29.88,ESE,122,0.0,0.0,90,0.00,,OVC,0.00,WeatherDisplay:10.37,2013-05-22 07:22:00,
2013-05-22 03:27:00,73.9,71.1,29.88,ESE,122,0.0,0.0,91,0.00,,OVC,0.00,WeatherDisplay:10.37,2013-05-22 07:27:00,
2013-05-22 03:32:00,74.0,71.2,29.88,ESE,123,0.0,0.0,91,0.00,,OVC,0.00,WeatherDisplay:10.37,2013-05-22 07:32:00,
2013-05-22 03:37:00,74.2,71.4,29.88,ESE,123,0.0,0.0,91,0.00,,OVC,0.00,WeatherDisplay:10.37,2013-05-22 07:37:00,
2013-05-22 03:42:00,74.2,71.4,29.88,SE,124,0.0,0.0,91,0.00,,OVC,0.00,WeatherDisplay:10.37,2013-05-22 07:42:00,
2013-05-22 03:47:00,74.2,71.7,29.88,SE,124,0.0,0.0,92,0.00,,OVC,0.00,WeatherDisplay:10.37,2013-05-22 07:47:00,
2013-05-22 03:52:00,74.4,71.9,29.88,SE,124,0.0,0.0,92,0.00,,OVC,0.00,WeatherDisplay:10.37,2013-05-22 07:52:00,
2013-05-22 03:57:00,74.6,72.1,29.88,SE,126,0.0,0.0,92,0.00,,OVC,0.00,WeatherDisplay:10.37,2013-05-22 07:57:00,
2013-05-22 04:02:00,74.6,72.1,29.88,SE,128,0.0,0.0,92,0.00,,OVC,0.00,WeatherDisplay:10.37,2013-05-22 08:02:00,
2013-05-22 04:07:00,74.6,72.1,29.88,SE,130,0.0,0.0,92,0.00,,OVC,0.00,WeatherDisplay:10.37,2013-05-22 08:07:00,
2013-05-22 04:12:00,74.6,72.1,29.88,SE,130,0.0,0.0,92,0.00,,OVC,0.00,WeatherDisplay:10.37,2013-05-22 08:12:00,
2013-05-22 04:17:00,74.6,72.1,29.88,SE,130,0.0,0.0,92,0.00,,OVC,0.00,WeatherDisplay:10.37,2013-05-22 08:17:00,
2013-05-22 04:22:00,74.4,71.9,29.88,SE,130,0.0,0.0,92,0.00,,OVC,0.00,WeatherDisplay:10.37,2013-05-22 08:22:00,
2013-05-22 04:27:00,74.4,71.9,29.88,SE,130,0.0,0.0,92,0.00,,OVC,0.00,WeatherDisplay:10.37,2013-05-22 08:27:00,
2013-05-22 04:32:00,74.4,71.9,29.88,SE,130,0.0,0.0,92,0.00,,OVC,0.00,WeatherDisplay:10.37,2013-05-22 08:32:00,
2013-05-22 04:37:00,74.2,71.7,29.88,SE,130,0.0,0.0,92,0.00,,OVC,0.00,WeatherDisplay:10.37,2013-05-22 08:37:00,
2013-05-22 04:42:00,74.2,71.7,29.88,SE,130,0.0,0.0,92,0.00,,OVC,0.00,WeatherDisplay:10.37,2013-05-22 08:42:00,
2013-05-22 04:47:00,74.4,71.9,29.89,SE,130,0.0,0.0,92,0.00,,OVC,0.00,WeatherDisplay:10.37,2013-05-22 08:47:00,
2013-05-22 04:52:00,74.2,71.7,29.89,SE,130,0.0,0.0,92,0.00,,OVC,0.00,WeatherDisplay:10.37,2013-05-22 08:52:00,
2013-05-22 04:57:00,74.2,71.7,29.89,SE,130,0.0,0.0,92,0.00,,OVC,0.00,WeatherDisplay:10.37,2013-05-22 08:57:00,
2013-05-22 05:02:00,74.2,71.7,29.89,SE,130,0.0,0.0,92,0.00,,OVC,0.00,WeatherDisplay:10.37,2013-05-22 09:02:00,
2013-05-22 05:07:00,74.2,71.7,29.89,SE,130,0.0,0.0,92,0.00,,OVC,0.00,WeatherDisplay:10.37,2013-05-22 09:07:00,
2013-05-22 05:12:00,74.2,71.7,29.89,SE,130,0.0,0.0,92,0.00,,OVC,0.00,WeatherDisplay:10.37,2013-05-22 09:12:00,
2013-05-22 05:17:00,74.4,71.9,29.88,SE,130,0.0,0.0,92,0.00,,OVC,0.00,WeatherDisplay:10.37,2013-05-22 09:17:00,
2013-05-22 05:22:00,74.4,71.9,29.88,SE,130,0.0,0.0,92,0.00,,OVC,0.00,WeatherDisplay:10.37,2013-05-22 09:22:00,
2013-05-22 05:27:00,74.4,71.9,29.88,SE,130,0.0,0.0,92,0.00,,OVC,0.00,WeatherDisplay:10.37,2013-05-22 09:27:00,
2013-05-22 05:32:00,74.2,71.7,29.88,SE,130,0.0,0.0,92,0.00,,OVC,0.00,WeatherDisplay:10.37,2013-05-22 09:32:00,
2013-05-22 05:37:00,74.2,71.7,29.88,SE,130,0.0,0.0,92,0.00,,OVC,0.00,WeatherDisplay:10.37,2013-05-22 09:37:00,
2013-05-22 05:42:00,74.0,71.5,29.88,SE,130,0.0,0.0,92,0.00,,OVC,0.00,WeatherDisplay:10.37,2013-05-22 09:42:00,
2013-05-22 05:47:00,73.9,71.4,29.87,SE,130,0.0,0.0,92,0.00,,OVC,0.00,WeatherDisplay:10.37,2013-05-22 09:47:00,
2013-05-22 05:52:00,73.9,71.4,29.87,SE,130,0.0,0.0,92,0.00,,OVC,0.00,WeatherDisplay:10.37,2013-05-22 09:52:00,
2013-05-22 05:57:00,73.9,71.4,29.87,SE,130,0.0,0.0,92,0.00,,OVC,0.00,WeatherDisplay:10.37,2013-05-22 09:57:00,
2013-05-22 06:02:00,73.9,71.4,29.87,SE,130,0.0,0.0,92,0.00,,OVC,0.00,WeatherDisplay:10.37,2013-05-22 10:02:00,
2013-05-22 06:07:00,73.9,71.4,29.87,SE,130,0.0,0.0,92,0.00,,OVC,0.00,WeatherDisplay:10.37,2013-05-22 10:07:00,
2013-05-22 06:12:00,74.0,71.5,29.87,SSE,148,0.0,0.5,92,0.00,,OVC,0.00,WeatherDisplay:10.37,2013-05-22 10:12:00,
2013-05-22 06:17:00,74.2,71.7,29.89,SE,143,11.0,11.0,92,0.00,,OVC,0.00,WeatherDisplay:10.37,2013-05-22 10:17:00,
2013-05-22 06:22:00,74.4,71.9,29.89,SE,132,1.2,1.2,92,0.00,,OVC,0.00,WeatherDisplay:10.37,2013-05-22 10:22:00,
2013-05-22 06:27:00,74.6,71.8,29.89,SE,125,0.0,0.0,91,0.00,,OVC,0.00,WeatherDisplay:10.37,2013-05-22 10:27:00,
2013-05-22 06:32:00,74.6,71.8,29.89,SE,127,8.1,0.0,91,0.00,,OVC,0.00,WeatherDisplay:10.37,2013-05-22 10:32:00,
2013-05-22 06:37:00,74.6,71.5,29.89,SE,128,0.0,0.0,90,0.00,,OVC,0.00,WeatherDisplay:10.37,2013-05-22 10:37:00,
2013-05-22 06:42:00,74.7,71.6,29.89,SE,127,0.0,0.0,90,0.00,,OVC,0.00,WeatherDisplay:10.37,2013-05-22 10:42:00,
2013-05-22 06:47:00,74.7,71.6,29.90,SE,128,0.0,0.0,90,0.00,,OVC,0.00,WeatherDisplay:10.37,2013-05-22 10:47:00,
2013-05-22 06:52:00,74.9,71.8,29.90,SE,140,28.8,28.8,90,0.00,,OVC,0.00,WeatherDisplay:10.37,2013-05-22 10:52:00,
2013-05-22 06:57:00,74.6,71.5,29.90,SSE,153,15.0,15.0,90,0.00,,OVC,0.00,WeatherDisplay:10.37,2013-05-22 10:57:00,
2013-05-22 07:02:00,74.4,70.9,29.90,NNE,32,3.5,3.5,89,0.00,,OVC,0.01,WeatherDisplay:10.37,2013-05-22 11:02:00,
2013-05-22 07:07:00,74.6,71.1,29.90,ENE,59,0.0,0.0,89,0.01,RA,OVC,0.01,WeatherDisplay:10.37,2013-05-22 11:07:00,
2013-05-22 07:12:00,74.6,71.5,29.90,ENE,68,0.0,0.0,90,0.01,RA,OVC,0.01,WeatherDisplay:10.37,2013-05-22 11:12:00,
2013-05-22 07:17:00,74.4,71.3,29.90,ENE,68,0.0,0.0,90,0.01,,OVC,0.01,WeatherDisplay:10.37,2013-05-22 11:17:00,
2013-05-22 07:22:00,74.4,71.3,29.90,ENE,68,0.0,0.0,90,0.01,,OVC,0.01,WeatherDisplay:10.37,2013-05-22 11:22:00,
2013-05-22 07:27:00,74.6,71.8,29.90,SE,146,16.0,16.0,91,0.01,,OVC,0.01,WeatherDisplay:10.37,2013-05-22 11:27:00,
2013-05-22 07:32:00,74.0,70.9,29.90,SSE,148,25.3,25.3,90,0.01,,OVC,0.01,WeatherDisplay:10.37,2013-05-22 11:32:00,
2013-05-22 07:37:00,73.7,70.3,29.90,SSE,148,13.8,13.8,89,0.01,,OVC,0.01,WeatherDisplay:10.37,2013-05-22 11:37:00,
2013-05-22 07:42:00,73.7,70.3,29.90,SSE,151,0.0,0.0,89,0.01,,OVC,0.01,WeatherDisplay:10.37,2013-05-22 11:42:00,
2013-05-22 07:47:00,73.0,69.6,29.90,SSE,157,0.0,0.0,89,0.02,RA,OVC,0.02,WeatherDisplay:10.37,2013-05-22 11:47:00,
2013-05-22 07:52:00,72.8,69.4,29.90,SSE,157,0.0,0.0,89,0.02,RA,OVC,0.02,WeatherDisplay:10.37,2013-05-22 11:52:00,
2013-05-22 07:57:00,72.8,69.7,29.90,SSE,157,0.0,0.0,90,0.02,,OVC,0.02,WeatherDisplay:10.37,2013-05-22 11:57:00,
2013-05-22 08:02:00,72.7,69.6,29.90,SSE,157,0.0,0.0,90,0.02,,OVC,0.02,WeatherDisplay:10.37,2013-05-22 12:02:00,
2013-05-22 08:08:00,72.7,69.6,29.90,SSE,157,0.0,0.0,90,0.01,,OVC,0.02,WeatherDisplay:10.37,2013-05-22 12:08:00,
2013-05-22 08:13:00,72.5,69.4,29.90,SSE,157,0.0,0.0,90,0.01,,OVC,0.02,WeatherDisplay:10.37,2013-05-22 12:13:00,
2013-05-22 08:18:00,72.3,69.5,29.90,SSE,157,0.0,0.0,91,0.01,,OVC,0.02,WeatherDisplay:10.37,2013-05-22 12:18:00,
2013-05-22 08:23:00,72.3,69.5,29.90,SSE,157,0.0,0.0,91,0.01,,OVC,0.02,WeatherDisplay:10.37,2013-05-22 12:23:00,
2013-05-22 08:28:00,72.5,69.7,29.90,SSE,157,0.0,0.0,91,0.01,,OVC,0.02,WeatherDisplay:10.37,2013-05-22 12:28:00,
2013-05-22 08:33:00,73.0,70.2,29.90,SSE,157,0.0,0.0,91,0.01,,OVC,0.02,WeatherDisplay:10.37,2013-05-22 12:33:00,
2013-05-22 08:38:00,73.3,70.2,29.90,SSE,157,0.0,0.0,90,0.01,,OVC,0.02,WeatherDisplay:10.37,2013-05-22 12:38:00,
2013-05-22 08:43:00,73.9,70.8,29.90,SSE,157,0.0,0.0,90,0.01,,OVC,0.02,WeatherDisplay:10.37,2013-05-22 12:43:00,
2013-05-22 08:48:00,74.4,71.3,29.91,SSE,157,0.0,0.0,90,0.00,,OVC,0.02,WeatherDisplay:10.37,2013-05-22 12:48:00,
2013-05-22 08:53:00,74.9,71.4,29.91,East,88,0.0,0.0,89,0.00,,OVC,0.02,WeatherDisplay:10.37,2013-05-22 12:53:00,
2013-05-22 08:58:00,75.6,71.5,29.91,NE,56,0.0,0.0,87,0.00,,OVC,0.02,WeatherDisplay:10.37,2013-05-22 12:58:00,
2013-05-22 09:03:00,76.3,71.8,29.92,NE,56,0.0,0.0,86,0.00,,OVC,0.02,WeatherDisplay:10.37,2013-05-22 13:03:00,
2013-05-22 09:08:00,76.7,71.5,29.92,ENE,61,0.0,0.0,84,0.00,,OVC,0.02,WeatherDisplay:10.37,2013-05-22 13:08:00,
2013-05-22 09:13:00,77.2,71.6,29.92,ENE,62,0.0,0.0,83,0.00,,OVC,0.02,WeatherDisplay:10.37,2013-05-22 13:13:00,
2013-05-22 09:18:00,77.4,71.5,29.92,ENE,61,0.0,0.0,82,0.00,,OVC,0.02,WeatherDisplay:10.37,2013-05-22 13:18:00,
2013-05-22 09:23:00,77.6,71.3,29.92,ENE,61,0.0,0.0,81,0.00,,OVC,0.02,WeatherDisplay:10.37,2013-05-22 13:23:00,
2013-05-22 09:28:00,77.6,70.9,29.92,ENE,62,0.0,0.0,80,0.00,,OVC,0.02,WeatherDisplay:10.37,2013-05-22 13:28:00,
2013-05-22 09:33:00,77.4,71.1,29.92,ENE,63,0.0,0.0,81,0.00,,OVC,0.02,WeatherDisplay:10.37,2013-05-22 13:33:00,
2013-05-22 09:38:00,77.2,70.5,29.92,ENE,69,0.0,0.0,80,0.00,,OVC,0.02,WeatherDisplay:10.37,2013-05-22 13:38:00,
2013-05-22 09:43:00,77.4,70.7,29.92,ENE,69,0.0,0.0,80,0.00,,OVC,0.02,WeatherDisplay:10.37,2013-05-22 13:43:00,
2013-05-22 09:48:00,77.2,70.9,29.92,ENE,59,0.0,0.0,81,0.00,,OVC,0.02,WeatherDisplay:10.37,2013-05-22 13:48:00,
2013-05-22 09:53:00,77.2,71.3,29.92,ENE,75,0.0,0.0,82,0.00,,OVC,0.02,WeatherDisplay:10.37,2013-05-22 13:53:00,
2013-05-22 09:58:00,77.2,70.9,29.92,ENE,72,0.0,0.0,81,0.00,,OVC,0.02,WeatherDisplay:10.37,2013-05-22 13:58:00,
2013-05-22 10:03:00,77.4,71.1,29.93,ENE,71,0.0,0.0,81,0.00,,OVC,0.02,WeatherDisplay:10.37,2013-05-22 14:03:00,
2013-05-22 10:08:00,77.6,71.3,29.93,ENE,64,0.0,0.0,81,0.00,,OVC,0.02,WeatherDisplay:10.37,2013-05-22 14:08:00,
2013-05-22 10:13:00,77.6,71.3,29.93,ENE,65,0.0,0.0,81,0.00,,OVC,0.02,WeatherDisplay:10.37,2013-05-22 14:13:00,
2013-05-22 10:18:00,77.7,71.4,29.93,East,85,0.0,0.0,81,0.00,,OVC,0.02,WeatherDisplay:10.37,2013-05-22 14:18:00,
2013-05-22 10:23:00,77.7,71.0,29.93,SE,139,0.0,0.0,80,0.00,,OVC,0.02,WeatherDisplay:10.37,2013-05-22 14:23:00,
2013-05-22 10:28:00,77.7,71.0,29.93,SE,135,0.0,0.0,80,0.00,,OVC,0.02,WeatherDisplay:10.37,2013-05-22 14:28:00,
2013-05-22 10:33:00,77.9,70.9,29.94,SE,134,0.0,0.0,79,0.00,,OVC,0.02,WeatherDisplay:10.37,2013-05-22 14:33:00,
2013-05-22 10:38:00,78.5,71.4,29.94,SE,136,0.0,0.0,79,0.00,,OVC,0.02,WeatherDisplay:10.37,2013-05-22 14:38:00,
2013-05-22 10:43:00,78.6,71.2,29.94,SSE,147,0.0,0.0,78,0.00,,OVC,0.02,WeatherDisplay:10.37,2013-05-22 14:43:00,
2013-05-22 10:48:00,78.8,71.4,29.93,SE,131,0.0,0.0,78,0.00,,OVC,0.02,WeatherDisplay:10.37,2013-05-22 14:48:00,
2013-05-22 10:53:00,78.6,71.2,29.93,ESE,115,0.0,0.0,78,0.00,,OVC,0.02,WeatherDisplay:10.37,2013-05-22 14:53:00,
2013-05-22 10:58:00,78.6,71.2,29.93,ESE,115,0.0,0.0,78,0.00,,OVC,0.02,WeatherDisplay:10.37,2013-05-22 14:58:00,
2013-05-22 11:03:00,78.8,71.4,29.92,ESE,115,0.0,0.0,78,0.00,,OVC,0.02,WeatherDisplay:10.37,2013-05-22 15:03:00,
2013-05-22 11:08:00,79.6,72.1,29.92,ESE,115,0.0,0.0,78,0.00,,OVC,0.02,WeatherDisplay:10.37,2013-05-22 15:08:00,
2013-05-22 11:13:00,80.5,72.6,29.92,ESE,115,0.0,0.0,77,0.00,,OVC,0.02,WeatherDisplay:10.37,2013-05-22 15:13:00,
2013-05-22 11:18:00,81.1,72.8,29.93,East,92,0.0,0.0,76,0.00,,OVC,0.02,WeatherDisplay:10.37,2013-05-22 15:18:00,
2013-05-22 11:23:00,81.2,72.5,29.93,NE,51,0.0,0.0,75,0.00,,OVC,0.02,WeatherDisplay:10.37,2013-05-22 15:23:00,
2013-05-22 11:28:00,81.2,72.1,29.93,NE,55,0.0,0.0,74,0.00,,OVC,0.02,WeatherDisplay:10.37,2013-05-22 15:28:00,
2013-05-22 11:33:00,81.8,72.7,29.92,ENE,58,0.0,0.0,74,0.00,,OVC,0.02,WeatherDisplay:10.37,2013-05-22 15:33:00,
2013-05-22 11:38:00,83.0,73.9,29.92,NE,47,0.0,0.0,74,0.00,,OVC,0.02,WeatherDisplay:10.37,2013-05-22 15:38:00,
2013-05-22 11:43:00,83.2,72.8,29.92,South,184,0.0,0.0,71,0.00,,OVC,0.02,WeatherDisplay:10.37,2013-05-22 15:43:00,
2013-05-22 11:48:00,83.4,72.6,29.92,South,184,0.0,0.0,70,0.00,,OVC,0.02,WeatherDisplay:10.37,2013-05-22 15:48:00,
2013-05-22 11:53:00,82.8,73.3,29.92,South,184,0.0,0.0,73,0.00,,OVC,0.02,WeatherDisplay:10.37,2013-05-22 15:53:00,
2013-05-22 11:58:00,81.6,73.7,29.92,South,188,0.0,0.0,77,0.05,RA,OVC,0.08,WeatherDisplay:10.37,2013-05-22 15:58:00,
2013-05-22 12:03:00,79.4,72.7,29.92,SSW,192,0.0,0.0,80,0.13,RA,OVC,0.15,WeatherDisplay:10.37,2013-05-22 16:03:00,
2013-05-22 12:08:00,78.8,73.2,29.92,SSW,192,0.0,0.0,83,0.13,RA,OVC,0.15,WeatherDisplay:10.37,2013-05-22 16:08:00,
2013-05-22 12:13:00,79.4,74.1,29.92,SSW,192,0.0,0.0,84,0.13,,OVC,0.15,WeatherDisplay:10.37,2013-05-22 16:13:00,
2013-05-22 12:18:00,79.4,73.4,29.92,SSW,192,0.0,0.0,82,0.13,,OVC,0.15,WeatherDisplay:10.37,2013-05-22 16:18:00,
2013-05-22 12:23:00,79.8,73.4,29.92,South,187,0.0,0.0,81,0.13,,OVC,0.15,WeatherDisplay:10.37,2013-05-22 16:23:00,
2013-05-22 12:28:00,80.7,74.3,29.92,South,187,0.0,0.0,81,0.13,,OVC,0.15,WeatherDisplay:10.37,2013-05-22 16:28:00,
2013-05-22 12:33:00,81.4,74.6,29.92,South,182,0.0,0.0,80,0.13,,OVC,0.15,WeatherDisplay:10.37,2013-05-22 16:33:00,
2013-05-22 12:39:00,82.0,73.3,29.92,South,182,0.0,0.0,75,0.13,,OVC,0.15,WeatherDisplay:10.37,2013-05-22 16:39:00,
2013-05-22 12:44:00,82.8,74.5,29.91,ENE,78,0.0,0.0,76,0.13,,OVC,0.15,WeatherDisplay:10.37,2013-05-22 16:44:00,
2013-05-22 12:49:00,83.2,74.0,29.91,NE,38,0.0,0.0,74,0.13,,OVC,0.15,WeatherDisplay:10.37,2013-05-22 16:49:00,
2013-05-22 12:54:00,83.4,73.8,29.91,NE,38,0.0,0.0,73,0.13,,OVC,0.15,WeatherDisplay:10.37,2013-05-22 16:54:00,
2013-05-22 12:59:00,83.6,73.6,29.90,NE,45,0.0,0.0,72,0.06,,OVC,0.15,WeatherDisplay:10.37,2013-05-22 16:59:00,
2013-05-22 13:04:00,84.3,74.3,29.90,NE,44,0.0,0.0,72,0.00,,OVC,0.15,WeatherDisplay:10.37,2013-05-22 17:04:00,
2013-05-22 13:09:00,84.5,73.2,29.90,ENE,59,0.0,0.0,69,0.00,,OVC,0.15,WeatherDisplay:10.37,2013-05-22 17:09:00,
2013-05-22 13:14:00,84.0,73.2,29.89,ENE,61,0.0,0.0,70,0.00,,OVC,0.15,WeatherDisplay:10.37,2013-05-22 17:14:00,
2013-05-22 13:19:00,83.6,73.2,29.89,ENE,62,0.0,0.0,71,0.00,,OVC,0.15,WeatherDisplay:10.37,2013-05-22 17:19:00,
2013-05-22 13:24:00,83.2,72.8,29.89,East,90,0.0,0.0,71,0.00,,OVC,0.15,WeatherDisplay:10.37,2013-05-22 17:24:00,
2013-05-22 13:29:00,82.6,72.7,29.90,ESE,113,0.0,0.0,72,0.00,,OVC,0.15,WeatherDisplay:10.37,2013-05-22 17:29:00,
2013-05-22 13:34:00,82.8,73.3,29.90,SSE,148,0.0,0.0,73,0.00,,OVC,0.15,WeatherDisplay:10.37,2013-05-22 17:34:00,
2013-05-22 13:39:00,83.4,73.8,29.90,North,5,0.0,0.0,73,0.00,,OVC,0.15,WeatherDisplay:10.37,2013-05-22 17:39:00,
2013-05-22 13:44:00,84.0,74.4,29.89,SE,130,0.0,0.0,73,0.00,,OVC,0.15,WeatherDisplay:10.37,2013-05-22 17:44:00,
2013-05-22 13:49:00,84.1,73.7,29.89,SE,129,8.1,8.1,71,0.00,,OVC,0.15,WeatherDisplay:10.37,2013-05-22 17:49:00,
2013-05-22 13:54:00,83.8,73.8,29.89,SE,133,0.0,0.0,72,0.00,,OVC,0.15,WeatherDisplay:10.37,2013-05-22 17:54:00,
2013-05-22 13:59:00,84.0,74.0,29.88,SE,138,0.0,0.0,72,0.00,,OVC,0.15,WeatherDisplay:10.37,2013-05-22 17:59:00,
2013-05-22 14:04:00,84.3,73.9,29.88,SE,137,0.0,0.0,71,0.00,,OVC,0.15,WeatherDisplay:10.37,2013-05-22 18:04:00,
2013-05-22 14:09:00,84.9,74.0,29.88,SE,142,18.0,18.0,70,0.00,,OVC,0.15,WeatherDisplay:10.37,2013-05-22 18:09:00,
2013-05-22 14:14:00,84.9,73.2,29.88,ENE,68,0.0,0.0,68,0.00,,OVC,0.15,WeatherDisplay:10.37,2013-05-22 18:14:00,
2013-05-22 14:19:00,85.5,73.7,29.88,SE,134,0.0,0.0,68,0.00,,OVC,0.15,WeatherDisplay:10.37,2013-05-22 18:19:00,
2013-05-22 14:24:00,85.9,74.5,29.88,SE,136,8.1,0.0,69,0.00,,OVC,0.15,WeatherDisplay:10.37,2013-05-22 18:24:00,
2013-05-22 14:29:00,86.1,73.4,29.89,SE,134,18.4,18.4,66,0.00,,OVC,0.15,WeatherDisplay:10.37,2013-05-22 18:29:00,
2013-05-22 14:34:00,84.3,72.6,29.89,SSE,149,9.2,9.2,68,0.00,,OVC,0.15,WeatherDisplay:10.37,2013-05-22 18:34:00,
2013-05-22 14:39:00,82.6,70.5,29.89,South,169,26.5,26.5,67,0.00,,OVC,0.15,WeatherDisplay:10.37,2013-05-22 18:39:00,
2013-05-22 14:44:00,79.4,69.2,29.89,SSW,202,20.7,20.7,71,0.00,,OVC,0.15,WeatherDisplay:10.37,2013-05-22 18:44:00,
2013-05-22 14:49:00,77.6,68.7,29.89,SSW,201,11.5,11.5,74,0.00,,OVC,0.15,WeatherDisplay:10.37,2013-05-22 18:49:00,
2013-05-22 14:54:00,76.3,68.9,29.89,SSE,153,19.6,19.6,78,0.00,,OVC,0.15,WeatherDisplay:10.37,2013-05-22 18:54:00,
2013-05-22 14:59:00,75.3,69.1,29.90,South,171,6.9,6.9,81,0.00,,OVC,0.15,WeatherDisplay:10.37,2013-05-22 18:59:00,
2013-05-22 15:04:00,74.9,69.4,29.90,West,259,3.5,3.5,83,0.01,RA,OVC,0.16,WeatherDisplay:10.37,2013-05-22 19:04:00,
2013-05-22 15:09:00,74.2,68.7,29.90,NW,318,16.1,16.1,83,0.03,RA,OVC,0.18,WeatherDisplay:10.37,2013-05-22 19:09:00,
2013-05-22 15:14:00,73.9,69.1,29.91,NW,312,0.0,0.0,85,0.04,RA,OVC,0.19,WeatherDisplay:10.37,2013-05-22 19:14:00,
2013-05-22 15:19:00,73.7,69.6,29.91,NW,321,0.0,0.0,87,0.07,RA,OVC,0.22,WeatherDisplay:10.37,2013-05-22 19:19:00,
2013-05-22 15:24:00,73.7,69.9,29.91,NW,322,0.0,0.0,88,0.09,RA,OVC,0.24,WeatherDisplay:10.37,2013-05-22 19:24:00,
2013-05-22 15:29:00,73.7,70.3,29.91,NW,321,0.0,0.0,89,0.10,RA,OVC,0.25,WeatherDisplay:10.37,2013-05-22 19:29:00,
2013-05-22 15:34:00,73.7,70.6,29.91,NW,321,0.0,0.0,90,0.10,RA,OVC,0.25,WeatherDisplay:10.37,2013-05-22 19:34:00,
2013-05-22 15:39:00,73.7,70.6,29.91,NW,321,0.0,0.0,90,0.10,,OVC,0.25,WeatherDisplay:10.37,2013-05-22 19:39:00,
2013-05-22 15:44:00,73.7,70.9,29.90,NW,318,0.0,0.0,91,0.10,,OVC,0.25,WeatherDisplay:10.37,2013-05-22 19:44:00,
2013-05-22 15:49:00,73.3,70.2,29.90,North,355,4.6,0.0,90,0.10,,OVC,0.25,WeatherDisplay:10.37,2013-05-22 19:49:00,
2013-05-22 15:54:00,72.8,70.0,29.90,North,10,0.0,0.0,91,0.11,RA,OVC,0.26,WeatherDisplay:10.37,2013-05-22 19:54:00,
2013-05-22 15:59:00,72.8,70.0,29.91,North,355,0.0,0.0,91,0.11,RA,OVC,0.26,WeatherDisplay:10.37,2013-05-22 19:59:00,
2013-05-22 16:04:00,72.8,70.0,29.91,North,11,10.4,10.4,91,0.10,,OVC,0.26,WeatherDisplay:10.37,2013-05-22 20:04:00,
2013-05-22 16:09:00,72.7,69.9,29.91,NNE,28,11.5,11.5,91,0.08,,OVC,0.26,WeatherDisplay:10.37,2013-05-22 20:09:00,
2013-05-22 16:14:00,72.3,69.5,29.89,NE,53,11.5,0.0,91,0.07,,OVC,0.26,WeatherDisplay:10.37,2013-05-22 20:14:00,
2013-05-22 16:19:00,72.1,69.6,29.89,NE,53,0.0,0.0,92,0.04,,OVC,0.26,WeatherDisplay:10.37,2013-05-22 20:19:00,
2013-05-22 16:25:00,72.3,69.8,29.89,NE,53,0.0,0.0,92,0.02,,OVC,0.26,WeatherDisplay:10.37,2013-05-22 20:25:00,
2013-05-22 16:30:00,72.5,70.0,29.88,NE,53,0.0,0.0,92,0.01,,OVC,0.26,WeatherDisplay:10.37,2013-05-22 20:30:00,
2013-05-22 16:35:00,72.5,70.0,29.88,NE,53,0.0,0.0,92,0.01,,OVC,0.26,WeatherDisplay:10.37,2013-05-22 20:35:00,
2013-05-22 16:40:00,72.5,70.0,29.88,NE,53,0.0,0.0,92,0.01,,OVC,0.26,WeatherDisplay:10.37,2013-05-22 20:40:00,
2013-05-22 16:45:00,72.7,70.2,29.87,NE,53,0.0,0.0,92,0.01,,OVC,0.26,WeatherDisplay:10.37,2013-05-22 20:45:00,
2013-05-22 16:50:00,72.8,70.3,29.87,NE,54,0.0,0.0,92,0.01,,OVC,0.26,WeatherDisplay:10.37,2013-05-22 20:50:00,
2013-05-22 16:55:00,73.2,71.1,29.87,NE,53,0.0,0.0,93,0.00,,OVC,0.26,WeatherDisplay:10.37,2013-05-22 20:55:00,
2013-05-22 17:00:00,73.3,71.2,29.87,NE,55,0.0,0.0,93,0.00,,OVC,0.26,WeatherDisplay:10.37,2013-05-22 21:00:00,
2013-05-22 17:05:00,73.5,71.4,29.87,NE,56,0.0,0.0,93,0.00,,OVC,0.26,WeatherDisplay:10.37,2013-05-22 21:05:00,
2013-05-22 17:10:00,73.7,71.5,29.87,NE,56,0.0,0.0,93,0.00,,OVC,0.26,WeatherDisplay:10.37,2013-05-22 21:10:00,
2013-05-22 17:15:00,73.7,71.5,29.87,NNE,26,8.1,8.1,93,0.00,,OVC,0.26,WeatherDisplay:10.37,2013-05-22 21:15:00,
2013-05-22 17:20:00,73.7,71.5,29.87,NNE,30,0.0,0.0,93,0.00,,OVC,0.26,WeatherDisplay:10.37,2013-05-22 21:20:00,
2013-05-22 17:25:00,74.0,71.8,29.87,NNE,30,0.0,0.0,93,0.00,,OVC,0.26,WeatherDisplay:10.37,2013-05-22 21:25:00,
2013-05-22 17:30:00,74.0,71.8,29.87,NNE,30,0.0,0.0,93,0.00,,OVC,0.26,WeatherDisplay:10.37,2013-05-22 21:30:00,
2013-05-22 17:35:00,74.2,72.0,29.87,NNE,30,0.0,0.0,93,0.00,,OVC,0.26,WeatherDisplay:10.37,2013-05-22 21:35:00,
2013-05-22 17:40:00,74.4,72.2,29.87,NNE,29,0.0,0.0,93,0.00,,OVC,0.26,WeatherDisplay:10.37,2013-05-22 21:40:00,
2013-05-22 17:45:00,74.6,72.4,29.88,NNE,29,0.0,0.0,93,0.00,,OVC,0.26,WeatherDisplay:10.37,2013-05-22 21:45:00,
2013-05-22 17:50:00,74.6,72.1,29.88,NNE,30,0.0,0.0,92,0.00,,OVC,0.26,WeatherDisplay:10.37,2013-05-22 21:50:00,
2013-05-22 17:55:00,74.6,72.1,29.88,NNE,29,0.0,0.0,92,0.00,,OVC,0.26,WeatherDisplay:10.37,2013-05-22 21:55:00,
2013-05-22 18:00:00,74.6,72.1,29.89,NNE,29,0.0,0.0,92,0.00,,OVC,0.26,WeatherDisplay:10.37,2013-05-22 22:00:00,
2013-05-22 18:05:00,74.6,72.1,29.89,NNE,30,0.0,0.0,92,0.00,,OVC,0.26,WeatherDisplay:10.37,2013-05-22 22:05:00,
2013-05-22 18:10:00,74.6,72.1,29.89,NNE,30,0.0,0.0,92,0.00,,OVC,0.26,WeatherDisplay:10.37,2013-05-22 22:10:00,
2013-05-22 18:15:00,74.7,72.2,29.89,NNE,30,0.0,0.0,92,0.00,,OVC,0.26,WeatherDisplay:10.37,2013-05-22 22:15:00,
2013-05-22 18:20:00,74.7,72.5,29.89,NNE,30,0.0,0.0,93,0.01,RA,OVC,0.27,WeatherDisplay:10.37,2013-05-22 22:20:00,
2013-05-22 18:25:00,74.9,72.7,29.89,NNE,29,0.0,0.0,93,0.01,RA,OVC,0.27,WeatherDisplay:10.37,2013-05-22 22:25:00,
2013-05-22 18:30:00,74.9,72.7,29.90,NNE,24,0.0,0.0,93,0.01,,OVC,0.27,WeatherDisplay:10.37,2013-05-22 22:30:00,
2013-05-22 18:35:00,74.7,72.5,29.90,North,5,0.0,0.0,93,0.02,RA,OVC,0.28,WeatherDisplay:10.37,2013-05-22 22:35:00,
2013-05-22 18:40:00,74.4,71.9,29.90,NNW,347,0.0,0.0,92,0.08,RA,OVC,0.34,WeatherDisplay:10.37,2013-05-22 22:40:00,
2013-05-22 18:45:00,74.0,71.5,29.90,NE,42,9.2,9.2,92,0.10,RA,OVC,0.36,WeatherDisplay:10.37,2013-05-22 22:45:00,
2013-05-22 18:50:00,74.0,71.8,29.90,NE,34,0.0,0.0,93,0.10,RA,OVC,0.36,WeatherDisplay:10.37,2013-05-22 22:50:00,
2013-05-22 18:55:00,74.2,72.0,29.90,NE,36,0.0,0.0,93,0.10,,OVC,0.36,WeatherDisplay:10.37,2013-05-22 22:55:00,
2013-05-22 19:00:00,74.4,72.2,29.89,NE,35,0.0,0.0,93,0.10,,OVC,0.36,WeatherDisplay:10.37,2013-05-22 23:00:00,
2013-05-22 19:05:00,74.6,72.4,29.89,NE,36,0.0,0.0,93,0.10,,OVC,0.36,WeatherDisplay:10.37,2013-05-22 23:05:00,
2013-05-22 19:10:00,74.6,72.4,29.89,NE,35,0.0,0.0,93,0.10,,OVC,0.36,WeatherDisplay:10.37,2013-05-22 23:10:00,
2013-05-22 19:15:00,74.6,72.4,29.89,NE,36,0.0,0.0,93,0.10,,OVC,0.36,WeatherDisplay:10.37,2013-05-22 23:15:00,
2013-05-22 19:20:00,74.6,72.4,29.89,NE,36,0.0,0.0,93,0.09,,OVC,0.36,WeatherDisplay:10.37,2013-05-22 23:20:00,
2013-05-22 19:25:00,74.7,72.5,29.89,NE,36,0.0,0.0,93,0.09,,OVC,0.36,WeatherDisplay:10.37,2013-05-22 23:25:00,
2013-05-22 19:30:00,74.6,72.4,29.88,NE,36,0.0,0.0,93,0.09,,OVC,0.36,WeatherDisplay:10.37,2013-05-22 23:30:00,
2013-05-22 19:35:00,74.7,72.5,29.88,NE,38,0.0,0.0,93,0.08,,OVC,0.36,WeatherDisplay:10.37,2013-05-22 23:35:00,
2013-05-22 19:41:00,74.7,72.5,29.88,NE,38,0.0,0.0,93,0.02,,OVC,0.36,WeatherDisplay:10.37,2013-05-22 23:41:00,
2013-05-22 19:46:00,74.7,72.5,29.88,NE,38,0.0,0.0,93,0.00,,OVC,0.36,WeatherDisplay:10.37,2013-05-22 23:46:00,
2013-05-22 19:51:00,74.9,72.7,29.88,NE,38,0.0,0.0,93,0.00,,OVC,0.36,WeatherDisplay:10.37,2013-05-22 23:51:00,
2013-05-22 19:56:00,74.9,73.1,29.88,NE,38,0.0,0.0,94,0.00,,OVC,0.36,WeatherDisplay:10.37,2013-05-22 23:56:00,
2013-05-22 20:01:00,75.1,73.3,29.88,NE,38,0.0,0.0,94,0.00,,OVC,0.36,WeatherDisplay:10.37,2013-05-23 00:01:00,
2013-05-22 20:06:00,75.1,73.3,29.88,NE,38,0.0,0.0,94,0.00,,OVC,0.36,WeatherDisplay:10.37,2013-05-23 00:06:00,
2013-05-22 20:11:00,75.1,73.3,29.88,NE,38,0.0,0.0,94,0.00,,OVC,0.36,WeatherDisplay:10.37,2013-05-23 00:11:00,
2013-05-22 20:16:00,75.1,73.3,29.89,NE,38,0.0,0.0,94,0.00,,OVC,0.36,WeatherDisplay:10.37,2013-05-23 00:16:00,
2013-05-22 20:21:00,74.9,73.1,29.89,NE,38,0.0,0.0,94,0.00,,OVC,0.36,WeatherDisplay:10.37,2013-05-23 00:21:00,
2013-05-22 20:26:00,74.9,73.1,29.89,NE,38,0.0,0.0,94,0.00,,OVC,0.36,WeatherDisplay:10.37,2013-05-23 00:26:00,
2013-05-22 20:31:00,75.1,73.3,29.90,NE,38,0.0,0.0,94,0.00,,OVC,0.36,WeatherDisplay:10.37,2013-05-23 00:31:00,
2013-05-22 20:36:00,75.1,73.3,29.90,NE,38,0.0,0.0,94,0.01,RA,OVC,0.37,WeatherDisplay:10.37,2013-05-23 00:36:00,
2013-05-22 20:41:00,75.1,73.3,29.90,NE,38,0.0,0.0,94,0.01,RA,OVC,0.37,WeatherDisplay:10.37,2013-05-23 00:41:00,
2013-05-22 20:46:00,75.1,73.3,29.90,NE,38,0.0,0.0,94,0.01,,OVC,0.37,WeatherDisplay:10.37,2013-05-23 00:46:00,
2013-05-22 20:51:00,75.1,73.3,29.90,NE,38,0.0,0.0,94,0.01,,OVC,0.37,WeatherDisplay:10.37,2013-05-23 00:51:00,
2013-05-22 20:56:00,75.1,73.3,29.90,NE,38,0.0,0.0,94,0.01,,OVC,0.37,WeatherDisplay:10.37,2013-05-23 00:56:00,
2013-05-22 21:01:00,75.1,73.3,29.90,NE,38,0.0,0.0,94,0.01,,OVC,0.37,WeatherDisplay:10.37,2013-05-23 01:01:00,
2013-05-22 21:06:00,75.1,73.3,29.90,NE,38,0.0,0.0,94,0.01,,OVC,0.37,WeatherDisplay:10.37,2013-05-23 01:06:00,
2013-05-22 21:11:00,74.9,73.1,29.90,NE,38,0.0,0.0,94,0.01,,OVC,0.37,WeatherDisplay:10.37,2013-05-23 01:11:00,
2013-05-22 21:16:00,74.9,73.1,29.90,NE,38,0.0,0.0,94,0.01,,OVC,0.37,WeatherDisplay:10.37,2013-05-23 01:16:00,
2013-05-22 21:21:00,74.9,73.1,29.90,NE,38,0.0,0.0,94,0.01,,OVC,0.37,WeatherDisplay:10.37,2013-05-23 01:21:00,
2013-05-22 21:26:00,74.9,73.1,29.90,NE,38,0.0,0.0,94,0.01,,OVC,0.37,WeatherDisplay:10.37,2013-05-23 01:26:00,
2013-05-22 21:31:00,74.9,73.1,29.90,NE,39,0.0,0.0,94,0.01,,OVC,0.37,WeatherDisplay:10.37,2013-05-23 01:31:00,
2013-05-22 21:36:00,74.7,72.9,29.90,East,90,0.0,0.0,94,0.00,,OVC,0.37,WeatherDisplay:10.37,2013-05-23 01:36:00,
2013-05-22 21:41:00,74.6,72.8,29.90,ESE,109,0.0,0.0,94,0.00,,OVC,0.37,WeatherDisplay:10.37,2013-05-23 01:41:00,
2013-05-22 21:46:00,74.2,72.4,29.90,SE,146,0.0,0.4,94,0.00,,OVC,0.37,WeatherDisplay:10.37,2013-05-23 01:46:00,
2013-05-22 21:51:00,73.9,72.1,29.90,SE,132,0.0,0.0,94,0.00,,OVC,0.37,WeatherDisplay:10.37,2013-05-23 01:51:00,
2013-05-22 21:56:00,73.9,72.1,29.90,SE,132,0.0,0.0,94,0.00,,OVC,0.37,WeatherDisplay:10.37,2013-05-23 01:56:00,
2013-05-22 22:01:00,73.7,71.9,29.90,SE,132,0.0,0.0,94,0.00,,OVC,0.37,WeatherDisplay:10.37,2013-05-23 02:01:00,
2013-05-22 22:06:00,73.5,71.7,29.90,SE,132,0.0,0.0,94,0.00,,OVC,0.37,WeatherDisplay:10.37,2013-05-23 02:06:00,
2013-05-22 22:11:00,73.5,71.7,29.90,SE,132,0.0,0.0,94,0.00,,OVC,0.37,WeatherDisplay:10.37,2013-05-23 02:11:00,
2013-05-22 22:16:00,73.5,71.7,29.90,SE,132,0.0,0.0,94,0.00,,OVC,0.37,WeatherDisplay:10.37,2013-05-23 02:16:00,
2013-05-22 22:21:00,73.5,71.7,29.90,SE,132,0.0,0.0,94,0.00,,OVC,0.37,WeatherDisplay:10.37,2013-05-23 02:21:00,
2013-05-22 22:26:00,73.5,71.7,29.90,SE,132,0.0,0.0,94,0.00,,OVC,0.37,WeatherDisplay:10.37,2013-05-23 02:26:00,
2013-05-22 22:31:00,73.7,71.9,29.91,SE,132,0.0,0.0,94,0.00,,OVC,0.37,WeatherDisplay:10.37,2013-05-23 02:31:00,
2013-05-22 22:36:00,73.7,71.9,29.91,SE,132,0.0,0.0,94,0.00,,OVC,0.37,WeatherDisplay:10.37,2013-05-23 02:36:00,
2013-05-22 22:41:00,73.7,71.9,29.91,SE,132,0.0,0.0,94,0.00,,OVC,0.37,WeatherDisplay:10.37,2013-05-23 02:41:00,
2013-05-22 22:46:00,73.5,71.7,29.92,SE,132,0.0,0.0,94,0.00,,OVC,0.37,WeatherDisplay:10.37,2013-05-23 02:46:00,
2013-05-22 22:51:00,73.5,71.7,29.92,SE,132,0.0,0.0,94,0.00,,OVC,0.37,WeatherDisplay:10.37,2013-05-23 02:51:00,
2013-05-22 22:56:00,73.5,71.7,29.92,SE,132,0.0,0.0,94,0.00,,OVC,0.37,WeatherDisplay:10.37,2013-05-23 02:56:00,
2013-05-22 23:01:00,73.7,71.9,29.92,SE,132,0.0,0.0,94,0.00,,OVC,0.37,WeatherDisplay:10.37,2013-05-23 03:01:00,
2013-05-22 23:06:00,73.7,71.9,29.92,SE,132,0.0,0.0,94,0.00,,OVC,0.37,WeatherDisplay:10.37,2013-05-23 03:06:00,
2013-05-22 23:11:00,73.7,71.9,29.92,SE,132,0.0,0.0,94,0.00,,OVC,0.37,WeatherDisplay:10.37,2013-05-23 03:11:00,
2013-05-22 23:16:00,73.9,72.1,29.92,SE,132,0.0,0.0,94,0.00,,OVC,0.37,WeatherDisplay:10.37,2013-05-23 03:16:00,
2013-05-22 23:21:00,73.9,72.1,29.92,SE,132,0.0,0.0,94,0.00,,OVC,0.37,WeatherDisplay:10.37,2013-05-23 03:21:00,
2013-05-22 23:26:00,73.9,72.1,29.92,SE,132,0.0,0.0,94,0.00,,OVC,0.37,WeatherDisplay:10.37,2013-05-23 03:26:00,
2013-05-22 23:31:00,73.9,72.1,29.92,SE,132,0.0,0.0,94,0.00,,OVC,0.37,WeatherDisplay:10.37,2013-05-23 03:31:00,
2013-05-22 23:36:00,74.2,72.4,29.92,SE,132,0.0,0.0,94,0.00,,OVC,0.37,WeatherDisplay:10.37,2013-05-23 03:36:00,
2013-05-22 23:41:00,74.4,72.6,29.92,SE,132,0.0,0.0,94,0.00,,OVC,0.37,WeatherDisplay:10.37,2013-05-23 03:41:00,
2013-05-22 23:46:00,74.4,72.6,29.92,SE,132,0.0,0.0,94,0.00,,OVC,0.37,WeatherDisplay:10.37,2013-05-23 03:46:00,
2013-05-22 23:51:00,74.4,72.6,29.92,SE,132,0.0,0.0,94,0.00,,OVC,0.37,WeatherDisplay:10.37,2013-05-23 03:51:00,
2013-05-22 23:56:00,74.6,72.8,29.92,SE,132,0.0,0.0,94,0.00,,OVC,0.37,WeatherDisplay:10.37,2013-05-23 03:56:00,